Wilmington International Airport
KILM : now visible

Airfield :











YOU CAN JOIN US ON...

 
LOGIN :

Register | Disclaimer

   EN    FR    IT 

 









Legend :    VFR   Marginal VFR   IFR   Intensive IFR   Very Intensive IFR
Visi :
Ceiling :
>= 8 km
>= 3000ft
5 to 8 km
1000 to 3000 ft
1500m to 5 km
500 to 1000 ft
800 to 1500m
200 to 500 ft
< 800m
< 200 ft
Symbols :   Thunderstorms  Fog  Heavy snow  Heavy precipitations  Wind > 20 kt






- Airport Elevation : 32 ft
- IATA code : ILM


KILM - Wilmington International

CURRENT METAR :
  • 200410Z AUTO 00000KT 6SM BR BKN003 BKN007 17/16 A2999 RMK AO2 T01720161 $

EXPIRED METARs :
  • 200353Z AUTO 00000KT 5SM BR SCT003 17/16 A3000 RMK AO2 SLP159 T01720156 $
  • 200333Z AUTO 00000KT 4SM BR BKN003 17/16 A3000 RMK AO2 T01670156 $
  • 200323Z AUTO 00000KT 5SM BR SCT004 17/16 A2999 RMK AO2 T01670156 $
  • 200253Z AUTO 00000KT 8SM CLR 18/16 A3000 RMK AO2 SLP157 LAST T01780161 50003 $
  • 200153Z 10003KT 10SM CLR 18/17 A3000 RMK AO2 SLP158 T01830167 $
  • 200137Z 11003KT 8SM SCT005 18/16 A3000 RMK AO2 T01780161 $
  • 200053Z 10003KT 8SM OVC005 18/17 A3000 RMK AO2 SLP158 T01830167 $
  • 200025Z 18/17 A2999 RMK AO2 T01830167 RVRNO $
  • 192353Z 07004KT 10SM OVC007 19/17 A2999 RMK AO2 SLP155 60001 T01890167 10228 20189 55002

TAF KILM
Valid from the 20 at 02:00 until the 21 at 00:00 UTC


200152Z 2002/2024 10003KT P6SM OVC005
TEMPO 2002/2006 SCT005
FM200900 VRB03KT 2SM BR SCT002
FM201400 23007KT P6SM BKN050
KZDC FIR / North America



MET'MAP, your aeronautical weather chart ! - Copyright ORBIFLY December 2007 - Disclaimer

ORBIFLY MET'MAP TEAM :

Programming & Development : Alexandra Zaïnal
Original concept : Baudouin d'Aumeries
Technical & hardware support : Manuel Goepfert
Assistance : Marc-Olivier Méhu




SOURCES & CREDITS :

   NOAA       Earth
Advisory